createdAt,value
2023-02-01T00:01:55.856Z,81.60
2023-02-01T00:04:44.403Z,81.30
2023-02-01T00:07:29.812Z,81.00
2023-02-01T00:10:15.059Z,80.70
2023-02-01T00:13:00.815Z,80.50
2023-02-01T00:15:46.456Z,80.50
2023-02-01T00:18:33.195Z,80.50
2023-02-01T00:21:21.368Z,80.20
2023-02-01T00:24:07.869Z,80.40
2023-02-01T00:26:53.418Z,80.30
2023-02-01T00:29:38.882Z,80.30
2023-02-01T00:32:24.522Z,80.40
2023-02-01T00:35:10.229Z,80.30
2023-02-01T00:37:56.035Z,80.30
2023-02-01T00:40:41.425Z,80.20
2023-02-01T00:43:27.183Z,80.00
2023-02-01T00:46:14.016Z,80.00
2023-02-01T00:48:59.549Z,79.70
2023-02-01T00:51:45.416Z,79.50
2023-02-01T00:54:31.013Z,79.50
2023-02-01T00:57:16.336Z,79.20
2023-02-01T01:00:01.536Z,79.30
2023-02-01T01:02:46.847Z,79.10
2023-02-01T01:05:32.491Z,79.10
2023-02-01T01:08:17.996Z,78.90
2023-02-01T01:11:15.827Z,79.00
2023-02-01T01:14:01.584Z,78.90
2023-02-01T01:16:46.956Z,79.00
2023-02-01T01:19:32.474Z,79.00
2023-02-01T01:22:18.909Z,79.10
2023-02-01T01:25:05.181Z,79.30
2023-02-01T01:27:50.624Z,79.80
2023-02-01T01:30:36.521Z,80.00
2023-02-01T01:33:22.197Z,79.80
2023-02-01T01:36:12.505Z,80.40
2023-02-01T01:38:58.024Z,80.50
2023-02-01T01:41:43.520Z,80.60
2023-02-01T01:45:06.802Z,80.80
2023-02-01T01:48:04.793Z,81.30
2023-02-01T01:50:57.016Z,81.40
2023-02-01T01:53:54.772Z,81.40
2023-02-01T01:56:42.083Z,81.20
2023-02-01T01:59:28.293Z,81.30
2023-02-01T02:02:14.449Z,81.20
2023-02-01T02:05:00.118Z,81.20
2023-02-01T02:07:49.200Z,80.80
2023-02-01T02:10:53.348Z,80.70
2023-02-01T02:13:42.490Z,80.90
2023-02-01T02:16:43.122Z,80.90
2023-02-01T02:19:59.765Z,80.90
2023-02-01T02:23:03.307Z,80.50
2023-02-01T02:26:11.392Z,80.40
2023-02-01T02:29:18.737Z,80.40
2023-02-01T02:32:38.220Z,80.40
2023-02-01T02:35:29.660Z,80.50
2023-02-01T02:38:41.020Z,80.50
2023-02-01T02:41:51.317Z,80.30
2023-02-01T02:45:10.145Z,80.20
2023-02-01T02:48:51.050Z,80.00
2023-02-01T02:52:06.061Z,79.90
2023-02-01T02:54:55.187Z,79.70
2023-02-01T02:58:03.577Z,79.20
2023-02-01T03:01:07.757Z,78.80
2023-02-01T03:04:09.719Z,78.70
2023-02-01T03:06:57.291Z,78.50
2023-02-01T03:09:48.673Z,78.40
2023-02-01T03:12:59.171Z,78.30
2023-02-01T03:15:59.489Z,78.30
2023-02-01T03:19:22.999Z,78.70
2023-02-01T03:22:12.544Z,79.30
2023-02-01T03:25:03.648Z,79.60
2023-02-01T03:28:05.066Z,79.90
2023-02-01T03:30:51.291Z,80.10
2023-02-01T03:33:40.141Z,80.60
2023-02-01T03:36:49.856Z,81.00
2023-02-01T03:39:48.658Z,81.50
2023-02-01T03:42:44.167Z,81.70
2023-02-01T03:45:43.591Z,81.50
2023-02-01T03:48:33.615Z,81.20
2023-02-01T03:51:26.307Z,81.60
2023-02-01T03:54:15.984Z,80.70
2023-02-01T03:57:06.094Z,80.70
2023-02-01T03:59:51.475Z,81.00
2023-02-01T04:02:37.617Z,81.00
2023-02-01T04:05:24.135Z,80.90
2023-02-01T04:08:18.348Z,80.80
2023-02-01T04:11:03.817Z,80.60
2023-02-01T04:13:49.295Z,80.60
2023-02-01T04:16:35.829Z,80.40
2023-02-01T04:19:21.388Z,80.40
2023-02-01T04:22:07.186Z,80.20
2023-02-01T04:24:52.324Z,80.00
2023-02-01T04:27:37.925Z,79.90
2023-02-01T04:30:28.993Z,79.80
2023-02-01T04:33:19.728Z,79.40
2023-02-01T04:36:05.140Z,79.10
2023-02-01T04:38:51.576Z,78.90
2023-02-01T04:41:37.090Z,79.00
2023-02-01T04:44:22.568Z,79.20
2023-02-01T04:47:08.183Z,79.50
2023-02-01T04:49:53.526Z,80.00
2023-02-01T04:52:44.873Z,80.40
2023-02-01T04:55:30.732Z,80.50
2023-02-01T04:58:16.521Z,80.60
2023-02-01T05:01:08.713Z,80.60
2023-02-01T05:03:54.092Z,81.20
2023-02-01T05:06:39.808Z,81.60
2023-02-01T05:09:25.043Z,81.50
2023-02-01T05:12:35.948Z,81.60
2023-02-01T05:15:21.611Z,81.70
2023-02-01T05:18:10.292Z,82.00
2023-02-01T05:20:56.694Z,82.50
2023-02-01T05:24:03.891Z,82.30
2023-02-01T05:26:50.179Z,82.80
2023-02-01T05:29:35.858Z,82.80
2023-02-01T05:32:22.998Z,83.20
2023-02-01T05:35:09.443Z,83.60
2023-02-01T05:37:55.046Z,83.70
2023-02-01T05:40:50.375Z,83.80
2023-02-01T05:43:36.029Z,83.70
2023-02-01T05:46:24.188Z,83.70
2023-02-01T05:49:10.270Z,83.80
2023-02-01T05:51:55.819Z,83.80
2023-02-01T05:54:41.034Z,83.70
2023-02-01T05:57:26.741Z,83.60
2023-02-01T06:00:15.117Z,83.50
2023-02-01T06:03:00.807Z,83.40
2023-02-01T06:05:53.019Z,83.50
2023-02-01T06:08:41.170Z,83.40
2023-02-01T06:11:33.055Z,83.80
2023-02-01T06:14:19.282Z,83.80
2023-02-01T06:17:04.592Z,83.90
2023-02-01T06:19:49.900Z,83.80
2023-02-01T06:22:38.587Z,83.90
2023-02-01T06:25:23.740Z,84.20
2023-02-01T06:28:09.306Z,84.20
2023-02-01T06:30:54.910Z,83.80
2023-02-01T06:33:41.466Z,83.80
2023-02-01T06:36:30.748Z,83.50
2023-02-01T06:39:17.177Z,83.50
2023-02-01T06:42:03.413Z,83.50
2023-02-01T06:44:49.102Z,83.30
2023-02-01T06:47:34.698Z,83.20
2023-02-01T06:50:19.917Z,83.10
2023-02-01T06:53:05.535Z,82.90
2023-02-01T06:55:59.738Z,82.80
2023-02-01T06:58:52.595Z,82.70
2023-02-01T07:01:38.396Z,82.80
2023-02-01T07:04:25.869Z,82.90
2023-02-01T07:07:11.936Z,82.90
2023-02-01T07:10:01.975Z,83.00
2023-02-01T07:12:47.370Z,82.90
2023-02-01T07:15:32.958Z,82.80
2023-02-01T07:18:20.813Z,83.00
2023-02-01T07:21:06.649Z,83.10
2023-02-01T07:23:53.641Z,83.20
2023-02-01T07:26:39.339Z,83.20
2023-02-01T07:29:26.218Z,83.30
2023-02-01T07:32:11.982Z,83.20
2023-02-01T07:34:58.397Z,83.20
2023-02-01T07:37:43.935Z,83.40
2023-02-01T07:40:31.409Z,83.20
2023-02-01T07:43:16.964Z,83.20
2023-02-01T07:46:06.609Z,83.00
2023-02-01T07:48:52.207Z,82.80
2023-02-01T07:51:37.734Z,83.00
2023-02-01T07:54:25.639Z,83.20
2023-02-01T07:57:12.763Z,83.20
2023-02-01T08:00:16.705Z,83.30
2023-02-01T08:03:04.444Z,83.50
2023-02-01T08:05:54.417Z,83.60
2023-02-01T08:08:39.685Z,83.60
2023-02-01T08:11:26.793Z,83.50
2023-02-01T08:14:12.383Z,83.70
2023-02-01T08:16:57.720Z,83.60
2023-02-01T08:19:43.261Z,83.30
2023-02-01T08:22:33.241Z,83.20
2023-02-01T08:25:18.862Z,83.10
2023-02-01T08:28:04.487Z,83.10
2023-02-01T08:30:50.099Z,82.90
2023-02-01T08:33:37.866Z,82.70
2023-02-01T08:36:29.180Z,82.70
2023-02-01T08:39:14.522Z,82.30
2023-02-01T08:42:21.591Z,82.20
2023-02-01T08:45:09.017Z,82.10
2023-02-01T08:47:54.633Z,81.80
2023-02-01T08:50:40.086Z,81.50
2023-02-01T08:53:25.753Z,81.30
2023-02-01T08:56:13.113Z,81.10
2023-02-01T08:58:58.288Z,80.50
2023-02-01T09:01:44.403Z,80.50
2023-02-01T09:04:30.221Z,80.20
2023-02-01T09:07:16.034Z,80.10
2023-02-01T09:10:02.174Z,80.10
2023-02-01T09:12:47.468Z,80.00
2023-02-01T09:15:33.272Z,80.00
2023-02-01T09:18:19.848Z,79.70
2023-02-01T09:21:06.913Z,79.40
2023-02-01T09:23:53.051Z,79.20
2023-02-01T09:26:38.824Z,78.80
2023-02-01T09:29:24.271Z,78.70
2023-02-01T09:32:12.886Z,78.30
2023-02-01T09:34:58.245Z,77.90
2023-02-01T09:37:46.369Z,77.90
2023-02-01T09:40:32.151Z,77.70
2023-02-01T09:43:39.800Z,76.70
2023-02-01T09:46:38.019Z,76.60
2023-02-01T09:49:32.161Z,76.70
2023-02-01T09:52:25.603Z,76.30
2023-02-01T09:55:20.651Z,76.30
2023-02-01T09:58:20.025Z,76.30
2023-02-01T10:01:21.012Z,76.00
2023-02-01T10:04:10.463Z,76.00
2023-02-01T10:07:16.624Z,76.60
2023-02-01T10:10:15.562Z,77.20
2023-02-01T10:13:28.578Z,77.20
2023-02-01T10:16:34.981Z,77.20
2023-02-01T10:19:52.716Z,76.90
2023-02-01T10:23:13.432Z,77.00
2023-02-01T10:25:56.019Z,76.90
2023-02-01T10:28:42.859Z,76.90
2023-02-01T10:31:36.858Z,77.00
2023-02-01T10:34:27.941Z,77.20
2023-02-01T10:37:29.836Z,77.20
2023-02-01T10:40:28.027Z,77.00
2023-02-01T10:43:13.536Z,77.00
2023-02-01T10:45:58.944Z,77.20
2023-02-01T10:48:45.005Z,76.70
2023-02-01T10:52:02.040Z,76.60
2023-02-01T10:54:47.707Z,76.50
2023-02-01T10:57:33.325Z,76.10
2023-02-01T11:00:23.408Z,76.50
2023-02-01T11:03:46.288Z,76.20
2023-02-01T11:06:33.918Z,75.80
2023-02-01T11:09:25.649Z,75.70
2023-02-01T11:12:26.633Z,76.00
2023-02-01T11:15:24.105Z,75.90
2023-02-01T11:18:30.458Z,76.00
2023-02-01T11:21:16.065Z,76.00
2023-02-01T11:24:04.448Z,76.10
2023-02-01T11:26:56.346Z,76.20
2023-02-01T11:29:46.503Z,76.50
2023-02-01T11:32:41.726Z,76.20
2023-02-01T11:35:29.520Z,76.10
2023-02-01T11:38:33.641Z,76.10
2023-02-01T11:41:28.026Z,76.30
2023-02-01T11:44:27.090Z,76.10
2023-02-01T11:47:23.449Z,75.20
2023-02-01T11:50:19.095Z,75.20
2023-02-01T11:53:04.564Z,74.70
2023-02-01T11:56:11.566Z,74.30
2023-02-01T11:59:09.072Z,74.20
2023-02-01T12:02:19.919Z,73.90
2023-02-01T12:05:17.629Z,73.70
2023-02-01T12:08:21.146Z,73.70
2023-02-01T12:11:24.145Z,74.10
2023-02-01T12:14:29.729Z,74.30
2023-02-01T12:17:23.896Z,74.70
2023-02-01T12:20:17.949Z,74.70
2023-02-01T12:23:31.579Z,75.30
2023-02-01T12:26:48.610Z,75.40
2023-02-01T12:29:53.433Z,75.50
2023-02-01T12:33:09.917Z,75.30
2023-02-01T12:36:47.602Z,75.10
2023-02-01T12:39:39.738Z,74.60
2023-02-01T12:42:39.947Z,73.50
2023-02-01T12:45:43.006Z,73.10
2023-02-01T12:48:37.817Z,72.80
2023-02-01T12:51:31.022Z,71.70
2023-02-01T12:54:42.863Z,71.90
2023-02-01T12:57:33.431Z,71.30
2023-02-01T13:00:33.678Z,70.50
2023-02-01T13:04:08.044Z,69.80
2023-02-01T13:07:01.738Z,68.20
2023-02-01T13:10:17.620Z,68.80
2023-02-01T13:13:20.377Z,70.10
2023-02-01T13:16:28.142Z,70.60
2023-02-01T13:19:30.612Z,69.70
2023-02-01T13:22:29.908Z,69.00
2023-02-01T13:25:25.856Z,69.30
2023-02-01T13:28:21.050Z,70.10
2023-02-01T13:31:34.595Z,70.60
2023-02-01T13:35:13.047Z,71.00
2023-02-01T13:38:26.861Z,72.60
2023-02-01T13:41:32.903Z,73.20
2023-02-01T13:44:34.485Z,74.10
2023-02-01T13:47:32.682Z,74.50
2023-02-01T13:50:18.020Z,74.70
2023-02-01T13:53:13.004Z,75.20
2023-02-01T13:56:02.972Z,75.60
2023-02-01T13:58:49.463Z,75.70
2023-02-01T14:01:36.395Z,75.70
2023-02-01T14:04:48.984Z,76.20
2023-02-01T14:07:34.625Z,76.30
2023-02-01T14:11:00.953Z,76.70
2023-02-01T14:13:46.528Z,76.80
2023-02-01T14:16:32.041Z,77.00
2023-02-01T14:19:23.132Z,76.90
2023-02-01T14:22:25.302Z,76.90
2023-02-01T14:25:19.238Z,76.80
2023-02-01T14:28:26.462Z,76.70
2023-02-01T14:31:50.093Z,76.80
2023-02-01T14:34:49.712Z,77.00
2023-02-01T14:37:38.901Z,77.20
2023-02-01T14:40:29.149Z,77.60
2023-02-01T14:43:26.580Z,77.90
2023-02-01T14:46:20.069Z,78.10
2023-02-01T14:49:07.267Z,78.30
2023-02-01T14:51:55.443Z,78.50
2023-02-01T14:54:43.477Z,78.50
2023-02-01T14:57:31.740Z,78.50
2023-02-01T15:00:32.131Z,78.80
2023-02-01T15:03:59.122Z,78.90
2023-02-01T15:07:07.800Z,79.00
2023-02-01T15:09:57.324Z,79.20
2023-02-01T15:12:49.381Z,79.40
2023-02-01T15:15:37.343Z,79.60
2023-02-01T15:18:23.181Z,79.60
2023-02-01T15:21:28.760Z,79.70
2023-02-01T15:24:25.861Z,80.00
2023-02-01T15:27:11.802Z,80.20
2023-02-01T15:30:16.917Z,80.20
2023-02-01T15:33:13.623Z,80.30
2023-02-01T15:36:18.594Z,80.40
2023-02-01T15:39:24.050Z,80.40
2023-02-01T15:42:17.014Z,80.40
2023-02-01T15:45:05.665Z,80.60
2023-02-01T15:47:53.278Z,80.50
2023-02-01T15:50:41.690Z,80.40
2023-02-01T15:53:34.769Z,80.30
2023-02-01T15:56:32.302Z,80.40
2023-02-01T15:59:19.952Z,80.40
2023-02-01T16:02:05.715Z,80.50
2023-02-01T16:04:52.295Z,80.90
2023-02-01T16:07:38.007Z,80.40
2023-02-01T16:10:28.513Z,80.30
2023-02-01T16:13:15.659Z,80.20
2023-02-01T16:16:01.302Z,79.90
2023-02-01T16:18:46.852Z,79.80
2023-02-01T16:21:32.409Z,79.80
2023-02-01T16:24:17.793Z,79.80
2023-02-01T16:27:03.987Z,79.80
2023-02-01T16:29:50.479Z,79.70
2023-02-01T16:32:39.055Z,79.70
2023-02-01T16:35:27.879Z,79.70
2023-02-01T16:38:14.799Z,79.80
2023-02-01T16:41:00.845Z,79.80
2023-02-01T16:43:46.478Z,80.10
2023-02-01T16:46:40.521Z,80.10
2023-02-01T16:49:26.610Z,80.20
2023-02-01T16:52:19.504Z,80.20
2023-02-01T16:55:13.283Z,80.20
2023-02-01T16:57:58.596Z,80.40
2023-02-01T17:00:47.442Z,80.30
2023-02-01T17:03:32.796Z,80.50
2023-02-01T17:06:24.121Z,80.70
2023-02-01T17:09:10.829Z,80.90
2023-02-01T17:11:56.360Z,80.90
2023-02-01T17:14:42.689Z,81.20
2023-02-01T17:17:39.200Z,81.30
2023-02-01T17:20:27.697Z,81.20
2023-02-01T17:23:13.344Z,81.50
2023-02-01T17:25:58.994Z,81.70
2023-02-01T17:28:44.294Z,81.70
2023-02-01T17:31:29.604Z,81.90
2023-02-01T17:34:17.536Z,82.10
2023-02-01T17:37:03.016Z,82.30
2023-02-01T17:39:57.680Z,82.30
2023-02-01T17:42:43.262Z,82.60
2023-02-01T17:45:38.612Z,82.70
2023-02-01T17:48:24.229Z,83.00
2023-02-01T17:51:17.741Z,83.00
2023-02-01T17:54:04.533Z,83.20
2023-02-01T17:56:50.148Z,83.40
2023-02-01T17:59:35.461Z,84.40
2023-02-01T18:02:23.278Z,83.50
2023-02-01T18:05:20.695Z,83.60
2023-02-01T18:08:06.468Z,83.70
2023-02-01T18:10:54.437Z,83.70
2023-02-01T18:13:43.843Z,83.90
2023-02-01T18:16:32.927Z,83.90
2023-02-01T18:19:21.396Z,83.90
2023-02-01T18:22:09.937Z,83.70
2023-02-01T18:24:57.775Z,83.60
2023-02-01T18:27:43.172Z,83.40
2023-02-01T18:30:33.954Z,84.20
2023-02-01T18:33:23.380Z,83.50
2023-02-01T18:36:13.019Z,83.60
2023-02-01T18:38:58.182Z,83.60
2023-02-01T18:41:45.621Z,83.60
2023-02-01T18:44:34.591Z,83.70
2023-02-01T18:47:22.765Z,83.40
2023-02-01T18:50:10.628Z,83.20
2023-02-01T18:52:57.787Z,83.20
2023-02-01T18:55:43.388Z,83.30
2023-02-01T18:58:29.205Z,83.20
2023-02-01T19:01:17.776Z,83.20
2023-02-01T19:04:12.761Z,83.10
2023-02-01T19:07:03.777Z,83.30
2023-02-01T19:09:49.624Z,83.20
2023-02-01T19:12:35.558Z,83.30
2023-02-01T19:15:30.277Z,83.40
2023-02-01T19:18:22.924Z,83.60
2023-02-01T19:21:10.951Z,83.60
2023-02-01T19:23:56.630Z,83.70
2023-02-01T19:26:43.631Z,83.70
2023-02-01T19:29:29.578Z,83.90
2023-02-01T19:32:14.991Z,84.10
2023-02-01T19:35:02.380Z,84.20
2023-02-01T19:37:49.483Z,84.30
2023-02-01T19:40:34.976Z,84.40
2023-02-01T19:43:20.331Z,84.30
2023-02-01T19:46:05.856Z,84.20
2023-02-01T19:48:51.704Z,84.70
2023-02-01T19:51:38.645Z,84.00
2023-02-01T19:54:24.129Z,84.00
2023-02-01T19:57:09.937Z,83.90
2023-02-01T19:59:55.504Z,83.70
2023-02-01T20:02:40.456Z,83.70
2023-02-01T20:05:26.363Z,83.60
2023-02-01T20:08:11.635Z,83.50
2023-02-01T20:10:57.753Z,83.60
2023-02-01T20:13:43.472Z,83.70
2023-02-01T20:16:28.973Z,83.70
2023-02-01T20:19:15.701Z,84.00
2023-02-01T20:22:01.041Z,84.00
2023-02-01T20:24:48.785Z,84.00
2023-02-01T20:27:35.215Z,84.10
2023-02-01T20:30:21.133Z,84.10
2023-02-01T20:33:09.453Z,84.10
2023-02-01T20:35:56.991Z,84.20
2023-02-01T20:38:45.565Z,84.20
2023-02-01T20:41:31.696Z,84.20
2023-02-01T20:44:17.153Z,84.30
2023-02-01T20:47:04.931Z,84.30
2023-02-01T20:49:50.690Z,84.30
2023-02-01T20:52:36.478Z,84.10
2023-02-01T20:55:22.482Z,84.30
2023-02-01T20:58:08.342Z,84.40
2023-02-01T21:00:54.137Z,84.50
2023-02-01T21:03:40.077Z,84.50
2023-02-01T21:06:26.609Z,84.50
2023-02-01T21:09:12.122Z,84.50
2023-02-01T21:11:57.668Z,84.50
2023-02-01T21:14:45.643Z,84.30
2023-02-01T21:17:32.043Z,84.30
2023-02-01T21:20:18.597Z,84.30
2023-02-01T21:23:04.212Z,84.20
2023-02-01T21:25:49.496Z,84.00
2023-02-01T21:28:35.000Z,84.00
2023-02-01T21:31:29.714Z,83.90
2023-02-01T21:34:17.622Z,84.00
2023-02-01T21:37:06.138Z,84.00
2023-02-01T21:39:52.517Z,84.10
2023-02-01T21:42:39.193Z,83.90
2023-02-01T21:45:29.972Z,83.70
2023-02-01T21:48:18.347Z,83.70
2023-02-01T21:51:04.274Z,83.70
2023-02-01T21:53:51.813Z,83.70
2023-02-01T21:56:37.741Z,83.70
2023-02-01T21:59:25.978Z,83.80
2023-02-01T22:02:16.796Z,83.80
2023-02-01T22:05:05.278Z,83.80
2023-02-01T22:07:53.565Z,83.90
2023-02-01T22:10:39.258Z,83.90
2023-02-01T22:13:24.895Z,83.90
2023-02-01T22:16:13.740Z,84.00
2023-02-01T22:18:58.997Z,84.50
2023-02-01T22:21:54.484Z,84.80
2023-02-01T22:24:41.548Z,85.00
2023-02-01T22:28:20.508Z,85.10
2023-02-01T22:30:32.713Z,85.30
2023-02-01T22:33:19.046Z,85.40
2023-02-01T22:36:05.613Z,85.40
2023-02-01T22:38:52.221Z,85.30
2023-02-01T22:41:37.708Z,85.50
2023-02-01T22:44:23.821Z,85.50
2023-02-01T22:47:09.565Z,85.40
2023-02-01T22:49:55.037Z,85.50
2023-02-01T22:52:40.376Z,85.60
2023-02-01T22:55:26.104Z,85.40
2023-02-01T22:58:15.921Z,85.40
2023-02-01T23:01:12.642Z,85.30
2023-02-01T23:03:59.641Z,85.40
2023-02-01T23:06:45.304Z,85.40
2023-02-01T23:09:30.782Z,85.40
2023-02-01T23:12:16.362Z,85.30
2023-02-01T23:15:08.197Z,85.30
2023-02-01T23:17:53.362Z,85.40
2023-02-01T23:20:40.955Z,85.50
2023-02-01T23:23:29.142Z,85.70
2023-02-01T23:26:20.097Z,85.70
2023-02-01T23:29:05.986Z,85.60
2023-02-01T23:31:54.743Z,85.70
2023-02-01T23:34:40.692Z,86.10
2023-02-01T23:37:26.852Z,86.30
2023-02-01T23:40:15.700Z,86.30
2023-02-01T23:43:19.576Z,86.30
2023-02-01T23:46:15.928Z,86.60
2023-02-01T23:49:03.508Z,87.00
2023-02-01T23:51:52.908Z,87.50
2023-02-01T23:54:38.559Z,87.60
2023-02-01T23:57:23.921Z,87.70
